x

East Bahamas - 335 Nm East Of San Salvador Is, Bahamas (41046) Wave Buoy

1:50am - Mon 15th Sep 2014 All times are UTC.

  • Sig Wave height 3.9ft
  • Swell Direction
  • Peak Period 6s
  • Average Period 5s
  • Wind
    11mph, 13mph gusts
  • Sea Temp 84°f
  • Air Temp 83°f
  • Sea Pressure 1019.2mb

More Historic Weather Station data

Upgrade to MSW Pro to gain access to the past 30 days of data for over 8000 Wavebouys and Weather Stations around the globe.

Join Pro

Comparision Forecast

View Surf forecast
   
Mon 09/15 1:50am 4ft 6s 5s 11 13 mph 1019.2mb 84f 83f
12:50am 4ft 5s 5s 13 16 mph 1018.8mb 84f 84f
Sun 09/14 11:50pm 4ft 6s 5s 13 16 mph 1018.2mb 84f 84f
10:50pm 4ft 6s 5s 16 18 mph 1017.7mb 84f 84f
9:50pm 3.5ft 5s 5s 13 16 mph 1017.7mb 85f 83f
8:50pm 3.5ft 5s 5s 20 25 mph 1017.5mb 85f 84f
7:50pm 3.5ft 5s 5s 16 18 mph 1017.4mb 85f 84f
6:50pm 3.5ft 5s 5s 13 16 mph 1017.7mb 85f 84f
5:50pm 3.5ft 5s 5s 13 16 mph 1018.3mb 85f 83f
4:50pm 3.5ft 5s 5s 16 18 mph 1018.7mb 84f 84f
3:50pm 3.5ft 5s 5s 18 22 mph 1019.4mb 84f 83f
2:50pm 3.5ft 5s 5s 16 18 mph 1019.8mb 84f 84f
1:50pm 3.5ft 4s 5s 13 16 mph 1019.8mb 84f 83f
12:50pm 3.5ft 5s 5s 13 16 mph 1019.6mb 84f 84f
11:50am 3ft 5s 5s 13 16 mph 1019.3mb 84f 84f
10:50am 3.5ft 5s 5s 16 18 mph 1018.8mb 84f 83f
9:50am 3.5ft 5s 5s 13 16 mph 1018.5mb 84f 83f
8:50am 3ft 5s 5s 13
mph
1018.1mb 84f 83f
7:50am 3.5ft 5s 5s 11 13 mph 1017.9mb 84f 83f
6:50am 3.5ft 5s 5s 13 16 mph 1018.1mb 84f 83f
5:50am 3.5ft 4s 5s 16 18 mph 1018.2mb 84f 83f
4:50am 3ft 8s 4s 13 18 mph 1018.4mb 84f 83f
3:50am 3.5ft 4s 4s 16 18 mph 1018.6mb 84f 83f
2:50am 3.5ft 8s 4s 16 18 mph 1018.5mb 84f 83f
1:50am 3.5ft 8s 4s 16 18 mph 1018.9mb 84f 83f
12:50am 3.5ft 7s 4s 16 18 mph 1018.6mb 84f 83f
Sat 09/13 11:50pm 3ft 8s 4s 16 18 mph 1018.4mb 84f 83f
10:50pm 3ft 8s 4s 16 18 mph 1018.1mb 85f 83f
9:50pm 2.5ft 8s 5s 13 16 mph 1018mb 85f 83f
8:50pm 2.5ft 8s 5s 16 18 mph 1017.8mb 85f 83f
7:50pm 2.5ft 8s 6s 16 18 mph 1017.6mb 85f 83f
6:50pm 2.5ft 8s 6s 9
mph
1018.5mb 85f 84f
5:50pm 2.5ft 8s 6s 7
mph
1019.1mb 85f 84f
4:50pm 2.5ft 9s 5s 7 9 mph 1019.5mb 85f 83f
3:50pm 2.5ft 9s 5s 7 9 mph 1019.7mb 84f 84f
2:50pm 2.5ft 8s 5s 9 11 mph 1019.8mb 84f 83f
1:50pm 2.5ft 8s 5s 9
mph
1019.6mb 84f 83f
12:50pm 2.5ft 8s 5s 9 11 mph 1018.6mb 84f 83f
11:50am 2.5ft 9s 5s 7
mph
1018.1mb 84f 83f
10:50am 2.5ft 7s 5s 7 9 mph 1017.9mb 84f 83f
9:50am 2.5ft 8s 5s 7 9 mph 1017.6mb 84f 83f
8:50am 2.5ft 7s 5s 9
mph
1016.9mb 84f 83f
7:50am 2.5ft 9s 5s 9 11 mph 1016.2mb 84f 83f
6:50am 2.5ft 8s 5s 9 11 mph 1016.5mb 84f 83f
5:50am 2.5ft 9s 5s 9 11 mph 1016.9mb 84f 83f
4:50am 2.5ft 9s 5s 11 13 mph 1017.2mb 84f 83f
3:50am 2.5ft 9s 5s 11 13 mph 1017.3mb 84f 83f
2:50am 2.5ft 9s 5s 11 13 mph 1017.4mb 85f 83f
1:50am 2.5ft 9s 5s 11 13 mph 1017.5mb 85f 83f
12:50am 2.5ft 8s 5s 11
mph
1017.1mb 85f 83f
Fri 09/12 11:50pm 2.5ft 7s 5s 11
mph
1016.4mb 85f 83f
10:50pm 2.5ft 8s 6s 9 11 mph 1016.4mb 85f 83f
9:50pm 2.5ft 7s 6s 7 9 mph 1016.3mb 85f 83f
8:50pm 2.5ft 8s 5s 7 11 mph 1016.5mb 85f 83f
7:50pm 2.5ft 9s 5s 7 9 mph 1016.2mb 85f 83f
6:50pm 2.5ft 9s 5s 7 9 mph 1016.4mb 85f 83f
5:50pm 2.5ft 8s 6s 9 11 mph 1016.7mb 85f 83f
4:50pm 2.5ft 8s 5s 9 11 mph 1017.4mb 85f 83f
3:50pm 2.5ft 8s 5s 9 11 mph 1017.6mb 85f 83f
2:50pm 2.5ft 8s 6s 9 11 mph 1017.7mb 84f 83f
1:50pm 2.5ft 9s 5s 9 11 mph 1017.6mb 84f 83f
12:50pm 2.5ft 8s 5s 9 11 mph 1017.1mb 84f 83f
11:50am 2.5ft 9s 6s 11 13 mph 1016.5mb 84f 83f
10:50am 2.5ft 9s 6s 9 11 mph 1016.2mb 84f 82f
9:50am 2.5ft 9s 6s 7 9 mph 1016.1mb 84f 82f
8:50am 2.5ft 9s 6s 7 11 mph 1015.6mb 84f 82f
7:50am 2.5ft 9s 6s 4 7 mph 1015.5mb 84f 82f
6:50am 2.5ft 8s 6s 7 9 mph 1015.5mb 84f 83f
5:50am 2.5ft 9s 6s 7 9 mph 1015.8mb 84f 82f
4:50am 2.5ft 8s 6s 7 9 mph 1016.3mb 85f 83f
3:50am 2.5ft 9s 6s 7 9 mph 1016.6mb 85f 83f
2:50am 2.5ft 8s 6s 7 9 mph 1016.8mb 85f 83f
1:50am 2.5ft 8s 6s 7 9 mph 1016.7mb 85f 83f
12:50am 2.5ft 8s 6s 7 9 mph 1016.3mb 85f 83f
Thu 09/11 11:50pm 2.5ft 8s 5s 7 9 mph 1015.5mb 85f 83f
10:50pm 2.5ft 8s 6s 7 9 mph 1015mb 85f 83f
9:50pm 2.5ft 8s 6s 7 9 mph 1014.9mb 86f 83f
8:50pm 2.5ft 8s 6s 7 9 mph 1015mb 86f 83f
7:50pm 2.5ft 8s 6s 4 7 mph 1015.2mb 86f 82f
6:50pm 2.5ft 7s 6s 7 9 mph 1015.6mb 86f 82f
5:50pm 2.5ft 7s 5s 7 9 mph 1016.2mb 85f 83f
4:50pm 2.5ft 8s 5s 7 9 mph 1016.6mb 85f 82f
3:50pm 2.5ft 7s 6s 9 11 mph 1016.9mb 85f 81f
2:50pm 2ft 7s 5s 2 4 mph 1017.3mb 85f 82f
1:50pm 2ft 7s 5s 4 7 mph 1017.3mb 84f 81f
12:50pm 2ft 8s 5s 4 7 mph 1017mb 84f 82f
11:50am 2.5ft 8s 5s 7 9 mph 1016.3mb 84f 81f
10:50am 2ft 8s 5s 9 11 mph 1015.6mb 84f 81f
9:50am 2ft 8s 5s 2 4 mph 1015.5mb 84f 82f
8:50am 2ft 7s 5s 4 7 mph 1015.2mb 84f 82f
7:50am 2ft 8s 5s 4
mph
1015.1mb 85f 81f
6:50am 2ft 6s 5s 2 4 mph 1015.1mb 85f 79f
5:50am 2ft 7s 5s 2 4 mph 1015.8mb 85f 82f
4:50am 2ft 6s 5s 2
mph
1016.2mb 85f 81f
3:50am 2ft 7s 5s  -  2 mph 1016.5mb 85f 81f
2:50am 2ft 7s 5s 7 9 mph 1016.8mb 85f 81f